Time;durP1;ratioP1;P1;durP2;ratioP2;P2;SDS_P1;SDS_P2;PMS_P1;PMS_P2;Temp;Humidity;BMP_temperature;BMP_pressure;BME280_temperature;BME280_humidity;BME280_pressure;Samples;Min_cycle;Max_cycle;Signal;HPM_P1;HPM_P2
2021/06/18 02:55:33;;;;;;;6.27;4.70;;;;;;;21.29;59.74;100583.34;126771;1108;67011;-91
2021/06/18 05:03:38;;;;;;;6.67;4.70;;;;;;;21.07;62.46;100629.10;120987;1108;66965;-90
2021/06/18 06:58:42;;;;;;;9.03;7.73;;;;;;;21.41;64.51;100601.80;117553;1103;65968;-92
2021/06/18 07:05:03;;;;;;;7.40;5.85;;;;;;;21.33;64.67;100601.51;106912;1109;65055;-89
2021/06/18 08:03:19;;;;;;;15.57;7.80;;;;;;;21.60;64.74;100525.98;125635;1108;66055;-90
2021/06/18 10:06:46;;;;;;;14.30;9.60;;;;;;;21.61;66.34;100515.53;106975;1108;64716;31
2021/06/18 11:01:52;;;;;;;14.93;10.27;;;;;;;21.79;66.99;100477.57;122020;1106;66394;-89
2021/06/18 11:13:46;;;;;;;13.27;9.50;;;;;;;21.84;67.34;100456.32;126849;1109;65023;-90
2021/06/18 11:25:45;;;;;;;13.07;10.83;;;;;;;21.95;67.58;100456.26;126896;1113;65199;-92
2021/06/18 11:31:42;;;;;;;14.95;10.10;;;;;;;21.98;67.49;100463.68;126526;1107;65564;31
2021/06/18 11:41:02;;;;;;;15.37;10.30;;;;;;;21.94;67.41;100466.00;126447;1109;65516;31
2021/06/18 11:44:09;;;;;;;11.80;10.40;;;;;;;21.92;67.73;100468.56;126764;1108;65375;-91
2021/06/18 11:47:20;;;;;;;8.80;7.90;;;;;;;21.90;67.27;100466.28;126690;1108;65601;-91
2021/06/18 11:53:25;;;;;;;9.77;8.63;;;;;;;21.89;67.56;100458.36;126809;1108;65565;-90
2021/06/18 12:02:28;;;;;;;11.27;8.60;;;;;;;21.83;67.92;100468.88;126811;1107;65463;-91
2021/06/18 12:05:38;;;;;;;9.47;7.60;;;;;;;21.78;67.81;100459.16;126753;1108;64952;-91
2021/06/18 12:14:33;;;;;;;8.30;6.70;;;;;;;21.65;67.92;100465.35;110679;1103;65141;-91
2021/06/18 12:20:19;;;;;;;9.53;6.37;;;;;;;21.64;67.48;100466.63;126811;1108;65276;-90
2021/06/18 12:29:55;;;;;;;6.43;4.60;;;;;;;21.59;67.99;100453.30;108815;1108;65076;-91
2021/06/18 12:51:43;;;;;;;9.87;7.20;;;;;;;21.54;68.17;100494.28;126833;1107;66030;-90
2021/06/18 13:07:23;;;;;;;58.98;46.63;;;;;;;21.81;67.47;100503.17;126858;1109;64829;-91
2021/06/18 13:10:51;;;;;;;47.03;38.83;;;;;;;21.83;67.94;100499.86;109637;1108;64911;-89
2021/06/18 13:29:34;;;;;;;27.60;22.33;;;;;;;21.83;67.43;100503.43;116593;1108;66024;-92
2021/06/18 13:42:04;;;;;;;20.27;16.90;;;;;;;21.85;66.94;100497.30;126029;1108;65134;-92
2021/06/18 13:47:58;;;;;;;17.17;15.10;;;;;;;21.83;66.67;100500.61;126831;1109;65570;-92
2021/06/18 14:00:09;;;;;;;16.13;13.67;;;;;;;21.85;67.23;100492.41;126778;1108;65968;-90
2021/06/18 14:06:20;;;;;;;13.77;11.97;;;;;;;21.83;66.48;100478.08;126801;1108;64911;-93
2021/06/18 14:15:49;;;;;;;12.53;11.23;;;;;;;21.86;66.75;100476.29;126864;1108;66013;-93
2021/06/18 14:19:26;;;;;;;14.90;11.40;;;;;;;21.86;66.98;100479.86;104934;1113;65101;-93
2021/06/18 14:28:46;;;;;;;12.27;9.33;;;;;;;21.82;66.34;100484.23;126850;1109;65601;-92
2021/06/18 14:34:52;;;;;;;8.87;7.03;;;;;;;21.83;66.64;100485.77;126831;1109;65867;-91
2021/06/18 14:43:41;;;;;;;8.73;7.83;;;;;;;21.85;66.49;100475.51;126852;1109;65691;-91
2021/06/18 14:49:36;;;;;;;10.37;7.63;;;;;;;21.83;66.66;100457.61;122705;1109;64999;-93
2021/06/18 14:55:49;;;;;;;7.87;6.53;;;;;;;21.85;66.31;100446.59;124723;1109;65536;-91
2021/06/18 15:07:44;;;;;;;7.40;6.70;;;;;;;21.84;66.71;100461.95;122701;1109;65476;-92
2021/06/18 15:14:04;;;;;;;8.13;5.77;;;;;;;21.81;66.50;100451.72;126896;1109;65654;-93
2021/06/18 15:22:48;;;;;;;6.53;5.77;;;;;;;21.83;66.29;100446.34;125615;1107;64965;-93
2021/06/18 15:31:56;;;;;;;6.57;5.43;;;;;;;21.82;66.48;100444.80;125663;1109;65150;-90
2021/06/18 15:41:01;;;;;;;5.53;4.43;;;;;;;21.79;66.05;100423.30;126794;1109;65272;-91
2021/06/18 15:50:15;;;;;;;6.10;4.57;;;;;;;21.81;66.29;100462.98;107917;1108;65067;-92
2021/06/18 15:53:31;;;;;;;8.03;4.83;;;;;;;21.78;66.01;100464.80;126814;1108;65659;-92
2021/06/18 16:06:02;;;;;;;;;;;;;;;21.78;66.48;100470.44;126815;1108;65627;-91
2021/06/18 16:12:15;;;;;;;5.40;4.57;;;;;;;21.77;65.92;100474.53;126824;1108;65130;-90
2021/06/18 16:18:13;;;;;;;4.70;4.20;;;;;;;21.75;66.05;100474.28;126835;1108;66759;-93
2021/06/18 16:27:19;;;;;;;6.33;4.97;;;;;;;21.72;66.13;100461.98;126885;1110;64954;-93
2021/06/18 16:33:45;;;;;;;6.60;5.00;;;;;;;21.75;66.28;100482.73;126432;1108;65417;-90
2021/06/18 16:37:24;;;;;;;5.30;4.77;;;;;;;21.75;65.68;100479.91;126820;1109;65924;-90
2021/06/18 16:43:27;;;;;;;7.50;4.67;;;;;;;21.70;65.65;100491.95;126836;1108;65429;-91
2021/06/18 16:55:50;;;;;;;6.60;4.50;;;;;;;21.72;66.11;100461.98;126831;1108;64821;-91
2021/06/18 17:01:55;;;;;;;7.00;4.60;;;;;;;21.71;65.82;100471.71;126780;1108;66583;-92
2021/06/18 17:10:54;;;;;;;7.05;4.40;;;;;;;21.65;65.67;100470.98;126807;1108;65016;-92
2021/06/18 17:17:16;;;;;;;6.50;4.33;;;;;;;21.67;65.60;100484.53;126823;1109;65622;-91
2021/06/18 17:23:02;;;;;;;6.37;4.80;;;;;;;21.69;65.57;100482.72;126783;1109;66023;-92
2021/06/18 17:32:05;;;;;;;6.10;4.90;;;;;;;21.63;65.57;100470.73;126837;1109;65723;-93
2021/06/18 17:47:08;;;;;;;9.43;6.13;;;;;;;21.66;65.53;100469.70;120003;1107;65482;-92
2021/06/18 17:53:08;;;;;;;8.57;6.10;;;;;;;21.65;65.38;100464.57;126763;1109;65163;-92
2021/06/18 18:01:45;;;;;;;7.73;5.20;;;;;;;21.63;65.71;100459.47;126832;1109;66510;-92
2021/06/18 18:14:15;;;;;;;7.63;5.93;;;;;;;21.65;65.45;100470.98;126833;1108;64923;-92
2021/06/18 18:20:03;;;;;;;10.70;6.63;;;;;;;21.59;65.66;100476.58;126778;1109;65188;-92
2021/06/18 18:26:01;;;;;;;9.90;7.23;;;;;;;21.61;65.52;100490.19;126810;1107;65434;-92
2021/06/18 18:31:47;;;;;;;10.90;7.30;;;;;;;21.62;65.81;100506.56;126803;1108;66509;-91
2021/06/18 18:40:50;;;;;;;10.17;7.33;;;;;;;21.61;65.62;100519.11;126784;1108;64826;-92
2021/06/18 18:46:56;;;;;;;10.47;6.70;;;;;;;21.59;64.94;100512.44;119196;1108;65775;-93
2021/06/18 18:52:43;;;;;;;8.80;6.60;;;;;;;21.60;65.61;100528.05;126794;1107;66926;-91
2021/06/18 18:59:10;;;;;;;;;;;;;;;;;;;;;
2021/06/18 19:07:35;;;;;;;10.00;6.63;;;;;;;21.58;65.43;100537.00;126771;1108;65034;-90
2021/06/18 19:13:27;;;;;;;10.57;6.20;;;;;;;21.59;65.44;100523.70;126790;1109;64997;-93
2021/06/18 19:19:19;;;;;;;8.67;6.87;;;;;;;21.61;65.14;100532.44;126785;1109;66591;-93
2021/06/18 19:28:07;;;;;;;10.43;7.23;;;;;;;21.60;64.93;100528.05;126807;1108;65632;-91
2021/06/18 19:33:59;;;;;;;8.90;6.67;;;;;;;21.57;64.74;100534.71;126809;1107;65132;-92
2021/06/18 19:39:47;;;;;;;8.90;6.63;;;;;;;21.59;65.31;100527.27;126790;1109;64863;-91
2021/06/18 19:45:50;;;;;;;9.40;6.63;;;;;;;21.61;65.40;100512.72;126678;1108;66735;-91
2021/06/18 19:57:42;;;;;;;7.07;6.23;;;;;;;21.57;64.87;100509.36;126793;1108;65406;-90
2021/06/18 20:03:43;;;;;;;10.43;6.47;;;;;;;21.60;65.03;100497.08;126838;1109;66360;-91
2021/06/18 20:12:23;;;;;;;8.23;6.33;;;;;;;21.60;64.92;100483.75;126859;1108;65448;-90
2021/06/18 20:15:30;;;;;;;7.20;5.97;;;;;;;21.60;64.84;100483.00;126791;1108;65705;-92
2021/06/18 20:21:35;;;;;;;9.03;6.20;;;;;;;21.54;64.88;100470.97;126768;1108;66468;-92
2021/06/18 20:27:42;;;;;;;8.05;6.10;;;;;;;21.55;65.21;100455.61;126839;1108;65603;-91
2021/06/18 20:33:46;;;;;;;8.13;6.10;;;;;;;21.58;65.23;100457.40;126814;1108;65395;-91
2021/06/18 20:46:00;;;;;;;7.25;6.40;;;;;;;21.54;65.04;100449.23;126805;1108;66028;-90
2021/06/18 20:55:11;;;;;;;9.10;5.95;;;;;;;21.57;65.27;100436.16;126790;1108;66668;-90
2021/06/18 20:58:18;;;;;;;9.47;6.07;;;;;;;21.58;64.86;100438.44;126801;1109;65360;-91
2021/06/18 21:10:23;;;;;;;6.80;6.10;;;;;;;21.54;64.64;100445.63;126841;1109;65038;-90
2021/06/18 21:16:28;;;;;;;5.97;5.20;;;;;;;21.56;65.17;100445.88;126842;1109;65610;-90
2021/06/18 21:22:53;;;;;;;6.75;5.45;;;;;;;21.58;65.36;100454.58;122253;1108;65004;-93
2021/06/18 21:32:10;;;;;;;6.50;5.80;;;;;;;21.57;64.86;100447.41;126828;1108;67592;-93
2021/06/18 21:38:35;;;;;;;5.97;5.37;;;;;;;21.53;64.92;100446.91;125403;1106;65417;-90
2021/06/18 21:44:33;;;;;;;7.40;5.37;;;;;;;21.54;64.71;100440.78;126882;1109;64829;31
2021/06/18 21:53:48;;;;;;;5.90;5.10;;;;;;;21.56;64.88;100446.63;126480;1109;65420;31
2021/06/18 21:56:56;;;;;;;7.40;5.80;;;;;;;21.54;65.07;100434.37;126782;1107;65635;-91
2021/06/18 22:03:09;;;;;;;7.20;4.78;;;;;;;21.51;64.58;100438.98;125669;1109;65091;-93
2021/06/18 22:08:39;;;;;;;10.35;5.10;;;;;;;21.53;65.22;100442.06;126829;1108;64906;-91
2021/06/18 22:14:27;;;;;;;6.60;5.00;;;;;;;21.56;65.09;100443.06;126854;1109;64859;31
2021/06/18 22:27:01;;;;;;;7.20;4.80;;;;;;;21.47;64.74;100430.04;126790;1109;66815;-91
2021/06/18 22:32:45;;;;;;;5.18;4.40;;;;;;;21.48;64.83;100437.95;126816;1108;65985;-92
2021/06/18 22:38:30;;;;;;;6.47;4.77;;;;;;;21.50;64.68;100433.86;126459;1108;66032;-90
2021/06/18 22:44:19;;;;;;;9.05;4.45;;;;;;;21.50;64.66;100426.20;126864;1109;65339;31
2021/06/18 22:53:19;;;;;;;7.80;4.45;;;;;;;21.43;64.61;100433.10;126469;1109;65352;31
2021/06/18 22:59:14;;;;;;;5.40;4.20;;;;;;;21.44;64.50;100429.00;126829;1108;64858;31
2021/06/18 23:08:20;;;;;;;6.30;4.47;;;;;;;21.48;65.00;100425.94;126474;1107;65275;31
2021/06/18 23:14:57;;;;;;;7.00;4.47;;;;;;;21.46;64.36;100423.63;126848;1109;65352;-91
2021/06/18 23:20:48;;;;;;;5.93;4.30;;;;;;;21.42;64.43;100428.00;126806;1109;64994;-90
2021/06/18 23:26:33;;;;;;;5.90;3.80;;;;;;;21.44;64.24;100429.00;126769;1109;65534;-91
2021/06/18 23:29:47;;;;;;;6.33;4.00;;;;;;;21.43;64.79;100424.66;124763;1108;65597;-90
2021/06/18 23:35:53;;;;;;;7.50;4.50;;;;;;;21.47;64.56;100435.67;126826;1109;65731;-91
2021/06/18 23:41:45;;;;;;;5.83;4.20;;;;;;;21.46;64.71;100437.70;126886;1109;65391;-92
2021/06/18 23:47:32;;;;;;;11.70;4.60;;;;;;;21.42;64.49;100437.22;126876;1108;65552;-92
2021/06/18 23:53:18;;;;;;;7.97;3.70;;;;;;;21.43;64.42;100430.28;126460;1109;65339;-92
2021/06/18 23:59:08;;;;;;;4.90;4.00;;;;;;;21.46;64.18;100420.06;126843;1110;64903;-91
